Uffculme, United Kingdom
Current Conditions -  °F | °C
As of 7:20 PM on Sunday 21 Dec 2014 (Local Time) from EGTE Reporting Station
Broken Clouds Broken Clouds  
Wind Chill: 54°   Ceiling: 1600
Heat Index: 54°   Visibility: 6mi
Dew Point: 48°   Wind: 8mph
Humidity: 82%   Direction: 230°SW
Pressure: 30.27"   Gusts: NA
Location:  50.91°N, 3.33°W
Report Text: EGTE 211920Z 23007KT 180V250 9999 BKN016 12/09 Q1025
Loading
Personal Weather Stations






























Interactive Weather Map New forecast layout! Learn more

10-Day Weather Forecast

Advertisements
Track Severe Weather on mobile